Main page
METAR-TAF:

METAR-TAF

Airports :

Kefalonia, Greece

Kephalonia International Airport

latitude: 38-07N, longitude: 020-30E, elevation: 19 m

Current weather observation

The report was made 5 hours and 28 minutes ago, at 17:50 UTC
Calm wind
Temperature 12°C
Humidity 88%
Pressure 1017 hPa
Visibility 10 km or more
Few clouds at a height of 1400 ft
Scattered clouds at a height of 1800 ft

METAR: LGKF 191750Z 00000KT 9999 FEW014 SCT018 12/10 Q1017

Time: 01:18 (23:18 UTC)

Forecast

The report was made 3 hours and 18 minutes ago, at 20:00 UTC
Forecast valid from 19 at 21 UTC to 20 at 06 UTC
Wind 5 kt from variable directions
Visibility 10 km or more
Scattered clouds at a height of 1000 ft
Broken clouds at a height of 2500 ft
Probability 30% :
Temporary
from 20 at 03 UTC to 20 at 06 UTC
Visibility: 5000 m
rain

TAF: LGKF 192000Z 1921/2006 VRB05KT 9999 SCT010 BKN025 PROB30 TEMPO 2003/2006 5000 RA

Weather observations and forecasts of more than 4000 airports (METAR and TAF reports).

The available stations are represented by yellow and red dots on the map.

Hover mouse over dot to see the name of the station.

Then click to see weather observations and forecasts.

To change the map : click on the green buttons with a black cross to zoom in, on the green button with a dash to zoom out, or on the green arrows for adjacent maps.


METAR-TAF: